createdAt,value
2022-09-28T00:00:07.731Z,948.52
2022-09-28T00:05:08.822Z,948.44
2022-09-28T00:10:10.927Z,948.38
2022-09-28T00:15:12.326Z,948.32
2022-09-28T00:20:13.958Z,948.38
2022-09-28T00:25:15.831Z,948.18
2022-09-28T00:30:18.029Z,948
2022-09-28T00:35:19.451Z,947.88
2022-09-28T00:40:20.691Z,947.78
2022-09-28T00:45:22.756Z,947.72
2022-09-28T00:50:24.816Z,947.58
2022-09-28T00:55:26.532Z,947.52
2022-09-28T01:00:28.015Z,947.38
2022-09-28T01:05:29.990Z,947.31
2022-09-28T01:10:31.267Z,947.27
2022-09-28T01:15:32.602Z,947.21
2022-09-28T01:20:34.454Z,947.11
2022-09-28T01:25:36.049Z,946.99
2022-09-28T01:30:37.576Z,947.01
2022-09-28T01:35:38.867Z,946.85
2022-09-28T01:40:40.584Z,946.8
2022-09-28T01:45:41.840Z,946.67
2022-09-28T01:50:43.371Z,946.58
2022-09-28T01:55:44.641Z,946.52
2022-09-28T02:00:46.112Z,946.41
2022-09-28T02:05:47.819Z,946.24
2022-09-28T02:10:49.321Z,946.09
2022-09-28T02:15:50.939Z,945.96
2022-09-28T02:20:52.867Z,945.82
2022-09-28T02:25:54.271Z,945.75
2022-09-28T02:30:56.377Z,945.69
2022-09-28T02:35:57.760Z,945.63
2022-09-28T02:40:59.803Z,945.58
2022-09-28T02:46:01.772Z,945.49
2022-09-28T02:51:02.953Z,945.42
2022-09-28T02:56:04.631Z,945.37
2022-09-28T03:01:06.598Z,945.34
2022-09-28T03:06:08.126Z,945.2
2022-09-28T03:11:09.846Z,945.1
2022-09-28T03:16:11.765Z,945.08
2022-09-28T03:21:13.261Z,945.03
2022-09-28T03:26:14.715Z,945.05
2022-09-28T03:31:16.720Z,945.05
2022-09-28T03:36:18.214Z,944.96
2022-09-28T03:41:19.906Z,944.88
2022-09-28T03:46:22.087Z,944.85
2022-09-28T03:51:23.893Z,944.78
2022-09-28T03:56:25.825Z,944.75
2022-09-28T04:01:28.133Z,944.71
2022-09-28T04:06:29.640Z,944.66
2022-09-28T04:11:42.902Z,944.62
2022-09-28T04:16:32.890Z,944.67
2022-09-28T04:21:34.341Z,944.59
2022-09-28T04:26:36.424Z,944.54
2022-09-28T04:31:37.774Z,944.44
2022-09-28T04:36:39.145Z,944.43
2022-09-28T04:41:40.825Z,944.41
2022-09-28T04:46:43.000Z,944.44
2022-09-28T04:51:44.731Z,944.49
2022-09-28T04:56:46.186Z,944.48
2022-09-28T05:01:47.743Z,944.51
2022-09-28T05:06:49.608Z,944.54
2022-09-28T05:11:51.303Z,944.58
2022-09-28T05:16:53.392Z,944.39
2022-09-28T05:21:54.574Z,944.43
2022-09-28T05:26:56.272Z,944.4
2022-09-28T05:31:58.196Z,944.31
2022-09-28T05:36:59.917Z,944.26
2022-09-28T05:42:01.881Z,943.97
2022-09-28T05:47:09.928Z,943.85
2022-09-28T05:52:11.943Z,943.77
2022-09-28T06:32:24.870Z,943.77
2022-09-28T06:37:26.947Z,943.67
2022-09-28T06:57:33.108Z,943.7
2022-09-28T07:02:35.002Z,943.75
2022-09-28T07:22:43.789Z,944.02
2022-09-28T07:27:44.149Z,943.92
2022-09-28T07:32:45.632Z,943.98
2022-09-28T07:37:47.265Z,943.97
2022-09-28T07:42:49.092Z,944
2022-09-28T07:47:51.148Z,944.11
2022-09-28T07:52:53.091Z,944.15
2022-09-28T07:57:55.106Z,944.24
2022-09-28T08:02:57.081Z,944.23
2022-09-28T08:07:58.654Z,944.24
2022-09-28T08:13:01.988Z,944.32
2022-09-28T08:18:02.865Z,944.35
2022-09-28T08:23:04.031Z,944.37
2022-09-28T08:28:05.597Z,944.44
2022-09-28T08:33:06.972Z,944.39
2022-09-28T08:38:08.516Z,944.41
2022-09-28T08:43:09.767Z,944.39
2022-09-28T08:48:11.843Z,944.58
2022-09-28T08:53:13.960Z,944.9
2022-09-28T08:58:15.235Z,945.17
2022-09-28T09:03:17.221Z,945.35
2022-09-28T09:08:19.048Z,945.46
2022-09-28T09:13:20.488Z,945.54
2022-09-28T09:18:22.510Z,945.58
2022-09-28T09:23:23.730Z,945.56
2022-09-28T09:28:25.536Z,945.54
2022-09-28T09:33:27.120Z,945.57
2022-09-28T09:38:29.067Z,945.42
2022-09-28T09:43:31.519Z,945.45
2022-09-28T09:48:32.295Z,945.61
2022-09-28T09:53:36.161Z,945.65
2022-09-28T09:58:36.265Z,945.7
2022-09-28T10:03:38.028Z,945.7
2022-09-28T10:08:39.182Z,945.74
2022-09-28T10:13:41.029Z,945.79
2022-09-28T10:18:42.883Z,945.85
2022-09-28T10:23:44.741Z,945.84
2022-09-28T10:28:46.692Z,945.79
2022-09-28T10:33:48.173Z,945.84
2022-09-28T10:38:49.821Z,945.9
2022-09-28T10:43:52.936Z,945.97
2022-09-28T10:48:52.858Z,945.96
2022-09-28T10:53:54.261Z,946.02
2022-09-28T10:58:55.731Z,946.09
2022-09-28T11:03:57.884Z,946.1
2022-09-28T11:08:59.410Z,946.08
2022-09-28T11:14:01.564Z,946.01
2022-09-28T11:19:02.984Z,946.06
2022-09-28T11:24:04.843Z,946.14
2022-09-28T11:29:06.896Z,946.19
2022-09-28T11:34:08.489Z,946.23
2022-09-28T11:39:10.161Z,946.26
2022-09-28T11:44:11.492Z,946.19
2022-09-28T11:49:13.081Z,946.25
2022-09-28T11:54:14.615Z,946.16
2022-09-28T11:59:16.206Z,946.39
2022-09-28T12:04:18.329Z,946.41
2022-09-28T12:09:19.869Z,946.46
2022-09-28T12:14:21.592Z,946.4
2022-09-28T12:19:22.977Z,946.38
2022-09-28T12:24:24.997Z,946.28
2022-09-28T12:29:26.357Z,946.4
2022-09-28T12:34:28.431Z,946.54
2022-09-28T12:39:41.151Z,946.45
2022-09-28T12:44:32.441Z,946.48
2022-09-28T12:50:20.403Z,946.43
2022-09-28T12:54:35.747Z,946.47
2022-09-28T12:59:37.343Z,946.53
2022-09-28T13:04:38.635Z,946.52
2022-09-28T13:09:40.786Z,946.42
2022-09-28T13:14:42.772Z,946.58
2022-09-28T13:19:44.619Z,946.5
2022-09-28T13:24:45.944Z,946.45
2022-09-28T13:29:47.168Z,946.5
2022-09-28T13:34:48.709Z,946.33
2022-09-28T13:39:50.577Z,946.24
2022-09-28T13:44:52.411Z,946.27
2022-09-28T13:49:53.566Z,946.31
2022-09-28T13:54:55.052Z,946.46
2022-09-28T13:59:56.465Z,946.46
2022-09-28T14:04:57.787Z,946.4
2022-09-28T14:09:59.897Z,946.48
2022-09-28T14:15:01.940Z,946.52
2022-09-28T14:20:04.008Z,946.42
2022-09-28T14:25:05.740Z,946.42
2022-09-28T14:30:06.887Z,946.37
2022-09-28T14:35:08.494Z,946.39
2022-09-28T14:40:09.766Z,946.39
2022-09-28T14:45:11.186Z,946.4
2022-09-28T14:50:14.746Z,946.47
2022-09-28T14:55:14.758Z,946.49
2022-09-28T15:00:16.912Z,946.47
2022-09-28T15:05:19.017Z,946.48
2022-09-28T15:10:23.050Z,946.39
2022-09-28T15:15:22.498Z,946.44
2022-09-28T15:20:23.686Z,946.44
2022-09-28T15:25:25.453Z,946.4
2022-09-28T15:30:26.925Z,946.43
2022-09-28T15:35:28.303Z,946.55
2022-09-28T15:40:29.625Z,946.59
2022-09-28T15:45:30.846Z,946.65
2022-09-28T15:50:32.580Z,946.72
2022-09-28T15:55:34.494Z,946.86
2022-09-28T16:00:36.006Z,946.85
2022-09-28T16:05:37.594Z,946.85
2022-09-28T16:10:39.374Z,946.88
2022-09-28T16:15:46.625Z,946.93
2022-09-28T16:20:42.799Z,946.99
2022-09-28T16:25:44.376Z,947.01
2022-09-28T16:30:46.469Z,947.01
2022-09-28T16:35:47.810Z,946.98
2022-09-28T16:40:49.524Z,946.89
2022-09-28T16:45:51.433Z,946.79
2022-09-28T16:50:52.644Z,946.73
2022-09-28T16:55:54.207Z,946.75
2022-09-28T17:00:55.998Z,946.81
2022-09-28T17:05:57.279Z,946.82
2022-09-28T17:11:17.871Z,946.87
2022-09-28T17:16:01.258Z,946.96
2022-09-28T17:21:02.799Z,947.04
2022-09-28T17:26:04.891Z,947.06
2022-09-28T17:31:06.344Z,947
2022-09-28T17:36:08.194Z,947.05
2022-09-28T17:41:09.581Z,947.02
2022-09-28T17:46:10.904Z,947.02
2022-09-28T17:51:12.382Z,947.09
2022-09-28T17:56:13.778Z,947.11
2022-09-28T18:01:16.023Z,947.08
2022-09-28T18:06:17.570Z,947.06
2022-09-28T18:11:19.646Z,947.13
2022-09-28T18:16:21.200Z,947.11
2022-09-28T18:21:22.547Z,947.23
2022-09-28T18:26:24.364Z,947.28
2022-09-28T18:31:25.666Z,947.33
2022-09-28T18:36:26.960Z,947.4
2022-09-28T18:41:28.336Z,947.48
2022-09-28T18:46:29.709Z,947.53
2022-09-28T18:51:30.978Z,947.66
2022-09-28T18:56:33.054Z,947.79
2022-09-28T19:01:34.623Z,947.82
2022-09-28T19:06:36.684Z,947.84
2022-09-28T19:11:38.396Z,947.88
2022-09-28T19:16:39.880Z,947.88
2022-09-28T19:21:41.279Z,947.86
2022-09-28T19:26:43.048Z,947.91
2022-09-28T19:31:45.033Z,947.96
2022-09-28T19:36:46.410Z,948.03
2022-09-28T19:41:47.821Z,948.11
2022-09-28T19:46:49.310Z,948.13
2022-09-28T19:52:11.386Z,948.21
2022-09-28T19:56:52.567Z,948.22
2022-09-28T20:01:54.151Z,948.38
2022-09-28T20:06:55.323Z,948.43
2022-09-28T20:11:57.330Z,948.46
2022-09-28T20:16:59.166Z,948.53
2022-09-28T20:22:00.861Z,948.55
2022-09-28T20:27:01.955Z,948.53
2022-09-28T20:32:09.013Z,948.44
2022-09-28T20:37:05.899Z,948.49
2022-09-28T20:42:07.838Z,948.6
2022-09-28T20:47:09.727Z,948.56
2022-09-28T20:52:10.948Z,948.56
2022-09-28T20:57:12.693Z,948.67
2022-09-28T21:52:31.266Z,948.71
2022-09-28T21:57:33.193Z,948.77
2022-09-28T22:22:40.838Z,948.86
2022-09-28T22:27:42.410Z,948.84
2022-09-28T22:32:50.442Z,948.79
2022-09-28T22:37:52.095Z,948.86
2022-09-28T22:42:54.140Z,948.84
2022-09-28T22:47:56.124Z,948.87
2022-09-28T22:52:57.858Z,948.85
2022-09-28T22:57:59.921Z,948.79
2022-09-28T23:03:01.426Z,948.81
2022-09-28T23:08:02.978Z,948.84
2022-09-28T23:13:04.355Z,948.84
2022-09-28T23:18:06.098Z,948.84
2022-09-28T23:23:07.745Z,948.76
2022-09-28T23:28:09.883Z,948.73
2022-09-28T23:33:11.700Z,948.73
2022-09-28T23:38:13.102Z,948.66
2022-09-28T23:43:15.198Z,948.61
2022-09-28T23:48:16.575Z,948.61
2022-09-28T23:53:18.185Z,948.69
2022-09-28T23:58:19.856Z,948.65
